Time;durP1;ratioP1;P1;durP2;ratioP2;P2;SDS_P1;SDS_P2;PMS_P1;PMS_P2;Temp;Humidity;BMP_temperature;BMP_pressure;BME280_temperature;BME280_humidity;BME280_pressure;Samples;Min_cycle;Max_cycle;Signal;HPM_P1;HPM_P2
2022/05/26 00:02:03;;;;;;;2.20;1.67;;;25.10;85.00;;;;;;4924929;29;20596;-65
2022/05/26 00:04:35;;;;;;;3.33;2.10;;;25.40;83.10;;;;;;4924021;29;20459;-65
2022/05/26 00:07:07;;;;;;;2.60;2.07;;;25.40;83.60;;;;;;4924776;29;20513;-66
2022/05/26 00:09:42;;;;;;;2.13;1.93;;;25.50;82.00;;;;;;4914484;29;20475;-66
2022/05/26 00:12:16;;;;;;;1.93;1.73;;;25.10;79.70;;;;;;4922814;29;20470;-66
2022/05/26 00:14:51;;;;;;;1.57;1.47;;;24.90;81.40;;;;;;4923442;29;20466;-66
2022/05/26 00:17:23;;;;;;;2.90;1.80;;;24.70;82.70;;;;;;4924752;29;20513;-66
2022/05/26 00:19:54;;;;;;;1.90;1.57;;;24.60;83.00;;;;;;4921516;29;20492;-67
2022/05/26 00:22:28;;;;;;;1.90;1.80;;;24.70;84.60;;;;;;4924900;29;20490;-67
2022/05/26 00:24:59;;;;;;;2.03;1.93;;;24.90;85.70;;;;;;4922293;29;20495;-66
2022/05/26 00:27:51;;;;;;;1.83;1.73;;;24.70;81.80;;;;;;4910811;29;20645;-66
2022/05/26 00:33:34;;;;;;;1.97;1.87;;;24.70;83.90;;;;;;4921168;29;20462;-67
2022/05/26 00:36:06;;;;;;;1.70;1.60;;;24.60;88.80;;;;;;4923454;29;20538;-66
2022/05/26 00:38:41;;;;;;;1.70;1.60;;;24.50;83.70;;;;;;4924149;29;20451;-67
2022/05/26 00:41:15;;;;;;;1.93;1.83;;;24.40;87.10;;;;;;4921485;29;20450;-66
2022/05/26 00:43:47;;;;;;;2.17;1.90;;;24.40;85.20;;;;;;4925194;29;20546;-66
2022/05/26 00:46:24;;;;;;;1.90;1.80;;;24.50;86.00;;;;;;4925739;29;20478;-66
2022/05/26 00:49:00;;;;;;;1.97;1.80;;;24.40;82.60;;;;;;4926782;29;20593;-68
2022/05/26 00:51:35;;;;;;;1.83;1.57;;;24.20;85.10;;;;;;4921117;29;20523;-66
2022/05/26 00:54:10;;;;;;;2.33;1.70;;;24.20;85.60;;;;;;4924064;29;20496;-66
2022/05/26 00:56:47;;;;;;;1.80;1.70;;;24.10;84.80;;;;;;4926211;29;20851;-67
2022/05/26 00:59:23;;;;;;;2.07;1.97;;;24.10;83.70;;;;;;4927111;29;20971;-65
2022/05/26 01:02:01;;;;;;;2.73;2.53;;;24.20;85.90;;;;;;4926285;29;20492;-66
2022/05/26 01:04:47;;;;;;;2.20;2.10;;;24.30;85.70;;;;;;4925017;29;20463;-67
2022/05/26 01:07:26;;;;;;;2.90;2.70;;;24.40;84.70;;;;;;4928411;29;20850;-66
2022/05/26 01:09:57;;;;;;;3.47;2.40;;;24.40;84.70;;;;;;4927049;29;20462;-66
2022/05/26 01:12:28;;;;;;;2.20;2.00;;;24.30;82.40;;;;;;4926448;29;20549;-66
2022/05/26 01:15:06;;;;;;;3.07;2.77;;;24.30;82.50;;;;;;4922292;29;20538;-66
2022/05/26 01:17:49;;;;;;;2.63;2.43;;;24.20;87.20;;;;;;4924938;29;20441;-65
2022/05/26 01:20:32;;;;;;;2.53;2.33;;;24.10;87.00;;;;;;4924959;29;20454;-65
2022/05/26 01:23:43;;;;;;;2.10;2.00;;;24.10;85.90;;;;;;4925359;29;20470;-65
2022/05/26 01:26:44;;;;;;;2.50;2.03;;;24.00;87.30;;;;;;4927720;29;20462;-66
2022/05/26 01:30:00;;;;;;;2.33;2.13;;;24.00;87.30;;;;;;4923982;29;20509;-65
2022/05/26 01:32:41;;;;;;;3.10;2.10;;;23.90;85.80;;;;;;4926697;29;20537;-65
2022/05/26 01:35:21;;;;;;;1.70;1.60;;;23.80;85.90;;;;;;4927453;29;21105;-66
2022/05/26 01:38:03;;;;;;;1.90;1.80;;;23.60;85.30;;;;;;4927589;29;20466;-66
2022/05/26 01:40:39;;;;;;;2.20;1.83;;;23.70;87.10;;;;;;4924763;29;20545;-67
2022/05/26 01:43:17;;;;;;;2.13;2.03;;;23.60;90.20;;;;;;4924409;29;20554;-68
2022/05/26 01:45:59;;;;;;;2.20;2.10;;;23.50;90.60;;;;;;4918571;29;20523;-68
2022/05/26 01:48:37;;;;;;;1.80;1.70;;;23.30;88.30;;;;;;4925377;29;20829;-68
2022/05/26 01:51:15;;;;;;;2.00;1.90;;;23.30;89.00;;;;;;4927171;29;20469;-67
2022/05/26 01:53:54;;;;;;;3.70;3.27;;;23.10;89.90;;;;;;4923204;29;20464;-69
2022/05/26 01:56:33;;;;;;;2.20;2.10;;;23.20;89.80;;;;;;4923733;29;20477;-67
2022/05/26 01:59:08;;;;;;;2.47;2.27;;;23.10;88.50;;;;;;4922052;29;20504;-66
2022/05/26 02:01:43;;;;;;;1.67;1.57;;;23.10;90.00;;;;;;4920240;29;20470;-66
2022/05/26 02:04:19;;;;;;;2.30;2.20;;;23.00;89.00;;;;;;4918590;29;20461;-66
2022/05/26 02:06:56;;;;;;;2.20;2.10;;;22.80;90.80;;;;;;4923947;29;20756;-66
2022/05/26 02:09:31;;;;;;;2.53;2.23;;;22.80;91.30;;;;;;4926363;29;20493;-65
2022/05/26 02:12:06;;;;;;;3.57;2.63;;;22.80;90.20;;;;;;4922015;29;20462;-65
2022/05/26 02:14:41;;;;;;;3.20;2.90;;;22.70;90.60;;;;;;4924369;29;20476;-66
2022/05/26 02:17:16;;;;;;;3.67;2.70;;;22.70;90.90;;;;;;4924756;29;20478;-66
2022/05/26 02:19:52;;;;;;;2.63;2.43;;;22.60;87.50;;;;;;4922822;29;20470;-65
2022/05/26 02:22:30;;;;;;;3.17;2.60;;;22.50;90.00;;;;;;4925013;29;20492;-62
2022/05/26 02:25:04;;;;;;;2.77;2.57;;;22.40;88.20;;;;;;4924083;29;20487;-66
2022/05/26 02:27:37;;;;;;;2.90;2.50;;;22.40;90.50;;;;;;4919748;29;20475;-64
2022/05/26 02:30:10;;;;;;;10.50;9.17;;;22.40;88.50;;;;;;4925958;29;20497;-64
2022/05/26 02:32:45;;;;;;;8.97;8.27;;;22.30;90.00;;;;;;4926772;29;20463;-63
2022/05/26 02:35:19;;;;;;;65.43;60.17;;;22.20;90.50;;;;;;4926337;29;20432;-63
2022/05/26 02:37:53;;;;;;;83.77;77.43;;;22.10;90.40;;;;;;4926666;29;20538;-64
2022/05/26 02:40:23;;;;;;;40.13;36.83;;;22.10;90.20;;;;;;4924604;29;20502;-65
2022/05/26 02:42:56;;;;;;;16.67;15.17;;;21.90;89.20;;;;;;4925642;29;20553;-64
2022/05/26 02:45:45;;;;;;;8.60;7.90;;;21.90;90.10;;;;;;4922543;29;20490;-65
2022/05/26 02:48:28;;;;;;;3.30;3.10;;;21.80;91.20;;;;;;4925847;29;20495;-65
2022/05/26 02:51:06;;;;;;;3.07;2.87;;;21.70;91.50;;;;;;4917258;29;20804;-66
2022/05/26 02:53:44;;;;;;;2.93;2.50;;;21.60;92.20;;;;;;4921526;29;21065;-65
2022/05/26 02:56:26;;;;;;;2.60;2.40;;;21.50;92.50;;;;;;4924998;29;20485;-65
2022/05/26 02:59:07;;;;;;;2.30;2.20;;;21.40;93.00;;;;;;4924228;29;20470;-65
2022/05/26 03:01:44;;;;;;;2.63;2.03;;;21.20;93.60;;;;;;4925442;29;20455;-65
2022/05/26 03:04:20;;;;;;;2.97;2.20;;;21.10;93.70;;;;;;4920775;29;20504;-66
2022/05/26 03:06:57;;;;;;;2.50;2.30;;;21.00;93.60;;;;;;4924330;29;20437;-65
2022/05/26 03:09:29;;;;;;;3.93;2.70;;;20.90;94.30;;;;;;4925592;29;20641;-66
2022/05/26 03:12:00;;;;;;;3.40;2.00;;;20.90;94.40;;;;;;4922599;29;20459;-65
2022/05/26 03:14:31;;;;;;;2.23;1.90;;;20.80;96.50;;;;;;4926038;29;20538;-66
2022/05/26 03:17:04;;;;;;;2.43;2.23;;;20.80;94.80;;;;;;4926293;29;20429;-66
2022/05/26 03:19:39;;;;;;;2.70;2.50;;;20.80;96.40;;;;;;4908131;29;20629;-66
2022/05/26 03:22:16;;;;;;;2.87;2.67;;;20.70;96.50;;;;;;4925424;29;20428;-66
2022/05/26 03:24:47;;;;;;;2.43;2.30;;;20.60;97.10;;;;;;4925051;29;20433;-65
2022/05/26 03:27:18;;;;;;;2.50;2.30;;;20.60;95.30;;;;;;4922949;29;20599;-66
2022/05/26 03:29:50;;;;;;;2.97;2.70;;;20.60;99.30;;;;;;4907084;29;20473;-65
2022/05/26 03:32:23;;;;;;;2.77;2.50;;;20.50;98.80;;;;;;4907134;29;20455;-66
2022/05/26 03:40:56;;;;;;;4.50;3.60;;;20.00;99.90;;;;;;4906400;29;20414;-64
2022/05/26 03:43:33;;;;;;;3.80;3.50;;;19.90;99.90;;;;;;4907462;29;20950;-64
2022/05/26 03:46:04;;;;;;;4.00;3.40;;;19.80;99.90;;;;;;4906492;29;20483;-64
2022/05/26 03:48:40;;;;;;;4.03;3.43;;;19.80;99.90;;;;;;4917889;29;20472;-64
2022/05/26 03:51:11;;;;;;;3.40;3.20;;;19.70;99.90;;;;;;4924825;29;20471;-63
2022/05/26 03:53:50;;;;;;;4.73;3.43;;;19.60;99.90;;;;;;4925205;29;20540;-64
2022/05/26 03:56:23;;;;;;;4.20;3.80;;;19.50;99.90;;;;;;4924749;29;20977;-64
2022/05/26 03:58:54;;;;;;;3.00;2.80;;;19.40;99.90;;;;;;4923229;29;20497;-64
2022/05/26 04:01:25;;;;;;;3.47;3.17;;;19.30;99.90;;;;;;4922502;29;20463;-65
2022/05/26 04:03:56;;;;;;;4.13;3.73;;;19.30;99.90;;;;;;4916427;29;20478;-64
2022/05/26 04:06:27;;;;;;;3.30;3.10;;;19.20;99.90;;;;;;4924777;29;20464;-64
2022/05/26 04:09:00;;;;;;;3.17;2.97;;;19.20;99.90;;;;;;4924716;29;21087;-66
2022/05/26 04:11:31;;;;;;;3.00;2.73;;;19.10;99.90;;;;;;4924701;29;20455;-65
2022/05/26 04:14:02;;;;;;;3.13;2.83;;;19.00;99.90;;;;;;4923636;29;20469;-65
2022/05/26 04:16:33;;;;;;;3.30;3.10;;;18.90;99.90;;;;;;4922607;29;20474;-65
2022/05/26 04:19:09;;;;;;;3.70;3.40;;;18.80;99.90;;;;;;4914054;29;20546;-65
2022/05/26 04:22:15;;;;;;;3.20;3.00;;;18.70;99.90;;;;;;4923579;29;20469;-65
2022/05/26 04:24:32;;;;;;;3.17;2.97;;;18.60;99.90;;;;;;4919654;29;20538;-65
2022/05/26 04:27:03;;;;;;;2.83;2.63;;;18.60;99.90;;;;;;4924826;29;20451;-65
2022/05/26 04:29:35;;;;;;;3.43;3.13;;;18.60;99.90;;;;;;4922025;29;20493;-65
2022/05/26 04:32:13;;;;;;;3.10;2.90;;;18.50;99.90;;;;;;4916130;29;20451;-64
2022/05/26 04:34:45;;;;;;;3.00;2.80;;;18.50;99.90;;;;;;4924403;29;20474;-65
2022/05/26 04:37:21;;;;;;;2.93;2.73;;;18.50;99.90;;;;;;4923557;29;20525;-64
2022/05/26 04:39:55;;;;;;;2.80;2.60;;;18.50;99.90;;;;;;4922561;29;20481;-66
2022/05/26 04:42:27;;;;;;;2.73;2.53;;;18.40;99.90;;;;;;4924439;29;20488;-65
2022/05/26 04:44:58;;;;;;;2.97;2.77;;;18.30;99.90;;;;;;4919032;29;21104;-66
2022/05/26 04:47:29;;;;;;;3.30;3.00;;;18.20;99.90;;;;;;4925117;29;20466;-66
2022/05/26 04:50:00;;;;;;;3.37;3.07;;;18.20;99.90;;;;;;4923973;29;20794;-65
2022/05/26 04:52:31;;;;;;;3.50;3.20;;;18.00;99.90;;;;;;4923747;29;20477;-65
2022/05/26 04:55:09;;;;;;;3.10;2.80;;;18.00;99.90;;;;;;4924314;29;20473;-64
2022/05/26 04:57:43;;;;;;;3.23;2.93;;;18.00;99.90;;;;;;4922971;29;20479;-64
2022/05/26 05:00:18;;;;;;;3.00;2.80;;;18.00;99.90;;;;;;4918481;29;20480;-64
2022/05/26 05:02:49;;;;;;;2.80;2.60;;;17.90;99.90;;;;;;4923744;29;20604;-64
2022/05/26 05:05:19;;;;;;;3.33;2.83;;;17.80;99.90;;;;;;4925156;29;20553;-63
2022/05/26 05:07:50;;;;;;;3.30;3.00;;;17.80;99.90;;;;;;4923667;29;20440;-63
2022/05/26 05:10:23;;;;;;;2.63;2.43;;;17.80;99.90;;;;;;4920950;29;20573;-64
2022/05/26 05:12:58;;;;;;;3.33;3.10;;;17.70;99.90;;;;;;4924281;29;20484;-64
2022/05/26 05:15:36;;;;;;;3.27;2.97;;;17.50;99.90;;;;;;4923883;29;20470;-64
2022/05/26 05:18:08;;;;;;;2.97;2.70;;;17.40;99.90;;;;;;4923920;29;20488;-63
2022/05/26 05:20:45;;;;;;;3.00;2.80;;;17.40;99.90;;;;;;4924869;29;20462;-63
2022/05/26 05:23:22;;;;;;;3.10;2.90;;;17.40;99.90;;;;;;4915095;29;20542;-64
2022/05/26 05:25:58;;;;;;;2.80;2.60;;;17.40;99.90;;;;;;4916185;29;20456;-62
2022/05/26 05:28:33;;;;;;;2.93;2.73;;;17.40;99.90;;;;;;4910597;29;20454;-63
2022/05/26 05:31:06;;;;;;;3.87;3.43;;;17.40;99.90;;;;;;4928527;29;20545;-62
2022/05/26 05:33:41;;;;;;;3.50;2.70;;;17.30;99.90;;;;;;4928478;29;20451;-63
2022/05/26 05:36:16;;;;;;;2.50;2.30;;;17.30;99.90;;;;;;4928660;29;20985;-64
2022/05/26 05:38:49;;;;;;;3.10;2.70;;;17.30;99.90;;;;;;4927369;29;20465;-62
2022/05/26 05:41:21;;;;;;;3.00;2.70;;;17.20;99.90;;;;;;4927270;29;20494;-62
2022/05/26 05:43:55;;;;;;;2.80;2.60;;;17.20;99.90;;;;;;4927238;29;20487;-62
2022/05/26 05:46:34;;;;;;;2.50;2.40;;;17.10;99.90;;;;;;4927723;29;20470;-63
2022/05/26 05:49:08;;;;;;;3.13;2.93;;;17.00;99.90;;;;;;4928084;29;20478;-63
2022/05/26 05:51:39;;;;;;;3.10;2.90;;;16.90;99.90;;;;;;4926350;29;20497;-63
2022/05/26 05:54:10;;;;;;;2.50;2.40;;;16.80;99.90;;;;;;4925933;29;20470;-63
2022/05/26 05:56:42;;;;;;;2.63;2.43;;;16.70;99.90;;;;;;4927368;29;20482;-63
2022/05/26 05:59:13;;;;;;;3.67;2.50;;;16.70;99.90;;;;;;4924940;29;20476;-63
2022/05/26 06:01:44;;;;;;;3.00;2.70;;;16.70;99.90;;;;;;4926972;29;20474;-63
2022/05/26 06:04:18;;;;;;;2.97;2.77;;;16.60;99.90;;;;;;4925213;29;20511;-64
2022/05/26 06:06:50;;;;;;;3.40;2.70;;;16.70;99.90;;;;;;4926854;29;20469;-63
2022/05/26 06:09:21;;;;;;;2.90;2.60;;;16.60;99.90;;;;;;4926150;29;20477;-63
2022/05/26 06:11:54;;;;;;;2.87;2.67;;;16.60;99.90;;;;;;4928067;29;20529;-63
2022/05/26 06:14:25;;;;;;;2.93;2.63;;;16.60;99.90;;;;;;4927311;29;20477;-64
2022/05/26 06:16:55;;;;;;;2.90;2.60;;;16.50;99.90;;;;;;4927480;29;20459;-63
2022/05/26 06:19:34;;;;;;;3.70;2.90;;;16.50;99.90;;;;;;4927253;29;20550;-64
2022/05/26 06:22:09;;;;;;;2.50;2.23;;;16.50;99.90;;;;;;4928235;29;20457;-63
2022/05/26 06:24:40;;;;;;;2.87;2.67;;;16.40;99.90;;;;;;4926824;29;20450;-63
2022/05/26 06:30:21;;;;;;;2.60;2.27;;;16.30;99.90;;;;;;4924144;29;20494;-63
2022/05/26 06:38:35;;;;;;;2.70;2.50;;;16.30;99.90;;;;;;4925490;29;20475;-64
2022/05/26 06:43:59;;;;;;;2.67;2.47;;;16.30;99.90;;;;;;4917963;29;20512;-64
2022/05/26 06:46:33;;;;;;;2.83;2.63;;;16.30;99.90;;;;;;4925927;29;20533;-63
2022/05/26 06:49:04;;;;;;;2.67;2.47;;;16.30;99.90;;;;;;4925258;29;20478;-64
2022/05/26 06:51:39;;;;;;;2.53;2.30;;;16.30;99.90;;;;;;4924998;29;20506;-64
2022/05/26 06:54:12;;;;;;;2.50;2.30;;;16.30;99.90;;;;;;4919070;29;20466;-64
2022/05/26 06:56:43;;;;;;;2.43;2.23;;;16.20;99.90;;;;;;4923615;29;20470;-63
2022/05/26 06:59:16;;;;;;;2.90;2.70;;;16.20;99.90;;;;;;4924026;29;20467;-64
2022/05/26 07:01:47;;;;;;;2.60;2.40;;;16.20;99.90;;;;;;4920735;29;21040;-63
2022/05/26 07:04:24;;;;;;;2.73;2.47;;;16.20;99.90;;;;;;4925899;29;20529;-63
2022/05/26 07:06:56;;;;;;;2.70;2.50;;;16.20;99.90;;;;;;4924119;29;20527;-63
2022/05/26 07:09:30;;;;;;;3.00;2.80;;;16.20;99.90;;;;;;4919561;29;20608;-63
2022/05/26 07:12:01;;;;;;;2.30;2.10;;;16.10;99.90;;;;;;4925581;29;20573;-63
2022/05/26 07:14:34;;;;;;;2.37;2.17;;;16.20;99.90;;;;;;4925022;29;20471;-63
2022/05/26 07:17:07;;;;;;;2.03;1.90;;;16.20;99.90;;;;;;4925113;29;20466;-64
2022/05/26 07:19:39;;;;;;;3.23;2.50;;;16.20;99.90;;;;;;4925590;29;20467;-63
2022/05/26 07:22:10;;;;;;;2.23;2.13;;;16.20;99.90;;;;;;4924381;29;20475;-63
2022/05/26 07:24:41;;;;;;;1.87;1.77;;;16.10;99.90;;;;;;4924066;29;21027;-63
2022/05/26 07:27:14;;;;;;;2.33;2.13;;;16.10;99.90;;;;;;4925106;29;20578;-63
2022/05/26 07:29:47;;;;;;;2.37;2.17;;;16.10;99.90;;;;;;4924867;29;20477;-64
2022/05/26 07:32:18;;;;;;;2.03;1.90;;;16.00;99.90;;;;;;4925342;29;20529;-63
2022/05/26 07:34:52;;;;;;;2.30;2.03;;;16.00;99.90;;;;;;4925985;29;20463;-64
2022/05/26 07:43:02;;;;;;;2.70;2.50;;;15.90;99.90;;;;;;4924898;29;20486;-63
2022/05/26 07:45:36;;;;;;;2.70;2.33;;;15.90;99.90;;;;;;4918984;29;20522;-63
2022/05/26 07:48:07;;;;;;;2.37;2.07;;;15.90;99.90;;;;;;4923515;29;20471;-63
2022/05/26 07:50:38;;;;;;;2.70;1.93;;;15.90;99.90;;;;;;4925072;29;20585;-63
2022/05/26 07:53:09;;;;;;;2.43;2.20;;;15.80;99.90;;;;;;4924443;29;20462;-63
2022/05/26 07:55:46;;;;;;;2.27;2.07;;;15.90;99.90;;;;;;4922412;29;20466;-63
2022/05/26 07:58:17;;;;;;;2.50;2.30;;;15.80;99.90;;;;;;4918490;29;20475;-63
2022/05/26 08:00:52;;;;;;;2.53;2.07;;;15.70;99.90;;;;;;4919446;29;20474;-64
2022/05/26 08:03:25;;;;;;;2.20;2.10;;;15.80;99.90;;;;;;4917803;29;20473;-63
2022/05/26 08:05:58;;;;;;;3.07;2.77;;;15.70;99.90;;;;;;4924323;29;20469;-64
2022/05/26 08:08:31;;;;;;;2.17;1.70;;;15.70;99.90;;;;;;4923922;29;20458;-63
2022/05/26 08:11:04;;;;;;;2.73;2.00;;;15.70;99.90;;;;;;4923976;29;20510;-63
2022/05/26 08:13:35;;;;;;;2.80;2.07;;;15.70;99.90;;;;;;4923894;29;20829;-63
2022/05/26 08:16:08;;;;;;;2.90;2.70;;;15.50;99.90;;;;;;4914733;29;20808;-63
2022/05/26 08:18:39;;;;;;;2.50;2.23;;;15.40;99.90;;;;;;4923820;29;20474;-63
2022/05/26 08:21:11;;;;;;;2.90;2.70;;;15.40;99.90;;;;;;4923662;29;20458;-63
2022/05/26 08:23:42;;;;;;;2.70;2.20;;;15.40;99.90;;;;;;4924508;29;20576;-63
2022/05/26 08:26:15;;;;;;;2.47;2.23;;;15.40;99.90;;;;;;4924407;29;20526;-63
2022/05/26 08:28:49;;;;;;;2.57;2.40;;;15.40;99.90;;;;;;4924537;29;20463;-63
2022/05/26 08:31:24;;;;;;;2.40;2.20;;;15.40;99.90;;;;;;4922520;29;20509;-63
2022/05/26 08:34:00;;;;;;;3.10;2.30;;;15.40;99.90;;;;;;4924042;29;20513;-63
2022/05/26 08:36:31;;;;;;;2.40;2.20;;;15.40;99.90;;;;;;4924370;29;20467;-64
2022/05/26 08:39:02;;;;;;;2.10;2.00;;;15.40;99.90;;;;;;4922657;29;20492;-64
2022/05/26 08:41:39;;;;;;;2.20;2.00;;;15.50;99.90;;;;;;4924599;29;20466;-63
2022/05/26 08:44:13;;;;;;;2.70;2.50;;;15.50;99.90;;;;;;4923313;29;20502;-63
2022/05/26 08:46:52;;;;;;;19.93;13.53;;;15.50;99.90;;;;;;4922365;29;20463;-63
2022/05/26 08:49:29;;;;;;;6.27;3.60;;;15.60;99.90;;;;;;4920959;29;20474;-63
2022/05/26 08:52:06;;;;;;;3.60;2.60;;;15.50;99.90;;;;;;4910989;29;20565;-63
2022/05/26 08:54:43;;;;;;;2.50;2.23;;;15.50;99.90;;;;;;4923486;29;20505;-64
2022/05/26 08:57:16;;;;;;;2.70;2.50;;;15.50;99.90;;;;;;4924311;29;20520;-63
2022/05/26 08:59:48;;;;;;;2.27;2.17;;;15.40;99.90;;;;;;4918744;29;20470;-63
2022/05/26 09:02:26;;;;;;;2.83;2.27;;;15.40;99.90;;;;;;4922173;29;20470;-63
2022/05/26 09:05:00;;;;;;;2.90;2.40;;;15.40;99.90;;;;;;4922474;29;20484;-63
2022/05/26 09:13:19;;;;;;;2.63;2.23;;;15.30;99.90;;;;;;4925255;29;20502;-63
2022/05/26 09:15:50;;;;;;;1.90;1.70;;;15.30;99.90;;;;;;4926020;29;20472;-63
2022/05/26 09:18:29;;;;;;;2.40;2.20;;;15.30;99.90;;;;;;4926679;29;20458;-62
2022/05/26 09:21:23;;;;;;;3.80;2.20;;;15.40;99.90;;;;;;4925619;29;20472;-62
2022/05/26 09:23:54;;;;;;;1.90;1.80;;;15.40;99.90;;;;;;4924665;29;20458;-62
2022/05/26 09:26:33;;;;;;;3.67;2.50;;;15.30;99.90;;;;;;4925210;29;20470;-63
2022/05/26 09:29:12;;;;;;;3.10;1.70;;;15.30;99.90;;;;;;4925309;29;20476;-63
2022/05/26 09:31:54;;;;;;;2.67;1.80;;;15.20;99.90;;;;;;4927107;29;21033;-63
2022/05/26 09:35:05;;;;;;;1.90;1.80;;;15.30;99.90;;;;;;4924243;29;20467;-62
2022/05/26 09:37:41;;;;;;;2.33;2.10;;;15.30;99.90;;;;;;4927267;29;20467;-63
2022/05/26 09:40:19;;;;;;;2.43;2.23;;;15.20;99.90;;;;;;4923328;29;20462;-63
2022/05/26 09:42:54;;;;;;;2.20;2.10;;;15.20;99.90;;;;;;4926188;29;20455;-62
2022/05/26 09:45:25;;;;;;;2.17;1.97;;;15.10;99.90;;;;;;4926640;29;20509;-62
2022/05/26 09:48:04;;;;;;;1.77;1.67;;;15.10;99.90;;;;;;4924844;29;20494;-63
2022/05/26 09:50:47;;;;;;;2.33;2.13;;;15.10;99.90;;;;;;4925351;29;20498;-63
2022/05/26 09:53:30;;;;;;;2.50;2.10;;;15.00;99.90;;;;;;4925021;29;20538;-62
2022/05/26 09:56:04;;;;;;;2.40;2.20;;;15.10;99.90;;;;;;4924156;29;20489;-63
2022/05/26 09:58:37;;;;;;;2.17;1.97;;;15.10;99.90;;;;;;4926985;29;20459;-63
2022/05/26 10:01:29;;;;;;;2.33;2.13;;;15.10;99.90;;;;;;4925304;29;20489;-63
2022/05/26 10:04:08;;;;;;;4.00;2.13;;;15.10;99.90;;;;;;4924129;29;20494;-63
2022/05/26 10:06:47;;;;;;;1.83;1.73;;;15.10;99.90;;;;;;4925051;29;20566;-63
2022/05/26 10:09:25;;;;;;;2.43;2.10;;;15.10;99.90;;;;;;4925232;29;20502;-63
2022/05/26 10:12:12;;;;;;;2.30;2.10;;;15.10;99.90;;;;;;4927270;29;20490;-63
2022/05/26 10:15:02;;;;;;;4.03;2.63;;;15.20;99.90;;;;;;4926048;29;20522;-62
2022/05/26 10:17:49;;;;;;;2.70;2.50;;;15.10;99.90;;;;;;4920575;29;20462;-62
2022/05/26 10:20:39;;;;;;;2.70;2.50;;;15.20;99.90;;;;;;4925461;29;21027;-63
2022/05/26 10:23:33;;;;;;;4.60;2.50;;;15.20;99.90;;;;;;4919793;29;20478;-63
2022/05/26 10:26:10;;;;;;;3.13;2.40;;;15.10;99.90;;;;;;4923526;29;20808;-62
2022/05/26 10:29:29;;;;;;;4.00;2.37;;;15.10;99.90;;;;;;4927703;29;20446;-62
2022/05/26 10:32:13;;;;;;;2.83;2.63;;;15.00;99.90;;;;;;4861407;29;20507;-62
2022/05/26 10:35:03;;;;;;;5.00;3.23;;;14.90;99.90;;;;;;4854593;29;20465;-63
2022/05/26 10:37:52;;;;;;;3.40;2.83;;;14.90;99.90;;;;;;4862196;29;20557;-62
2022/05/26 10:40:37;;;;;;;2.73;2.53;;;15.00;99.90;;;;;;4865571;29;20894;-62
2022/05/26 10:43:15;;;;;;;3.67;2.40;;;15.00;99.90;;;;;;4865883;29;20496;-63
2022/05/26 10:45:51;;;;;;;2.77;2.57;;;14.90;99.90;;;;;;4867589;29;20505;-63
2022/05/26 10:48:31;;;;;;;3.90;3.00;;;14.80;99.90;;;;;;4866601;29;20545;-62
2022/05/26 10:51:10;;;;;;;4.93;2.90;;;14.70;99.90;;;;;;4866016;29;20477;-63
2022/05/26 10:53:47;;;;;;;3.03;2.73;;;14.80;99.90;;;;;;4866989;29;20543;-63
2022/05/26 10:56:30;;;;;;;2.70;2.50;;;14.80;99.90;;;;;;4866441;29;20491;-63
2022/05/26 10:59:10;;;;;;;3.50;3.20;;;14.60;99.90;;;;;;4867632;29;21047;-62
2022/05/26 11:01:48;;;;;;;3.17;2.80;;;14.50;99.90;;;;;;4867277;29;20605;-62
2022/05/26 11:04:31;;;;;;;2.90;2.60;;;14.50;99.90;;;;;;4925941;29;20463;-62
2022/05/26 11:07:10;;;;;;;2.57;2.37;;;14.50;99.90;;;;;;4922730;29;20475;-63
2022/05/26 11:09:51;;;;;;;3.50;3.10;;;14.50;99.90;;;;;;4923400;29;20484;-62
2022/05/26 11:12:38;;;;;;;3.63;3.07;;;14.50;99.90;;;;;;4913752;29;20577;-62
2022/05/26 11:18:06;;;;;;;5.80;3.03;;;14.30;99.90;;;;;;4925700;29;20458;-63
2022/05/26 11:20:42;;;;;;;3.50;3.20;;;14.20;99.90;;;;;;4915003;29;20559;-63
2022/05/26 11:23:17;;;;;;;3.17;2.87;;;14.20;99.90;;;;;;4925606;29;20972;-62
2022/05/26 11:25:57;;;;;;;4.90;2.50;;;14.20;99.90;;;;;;4922283;29;20467;-62
2022/05/26 11:28:39;;;;;;;3.37;3.07;;;14.10;99.90;;;;;;4925116;29;20474;-62
2022/05/26 11:37:27;;;;;;;3.63;2.80;;;14.10;99.90;;;;;;4919107;29;20498;-63
2022/05/26 11:40:07;;;;;;;3.27;2.97;;;14.10;99.90;;;;;;4911941;29;20482;-63
2022/05/26 11:42:51;;;;;;;4.10;3.17;;;14.10;99.90;;;;;;4917782;29;20490;-63
2022/05/26 11:45:27;;;;;;;4.13;3.70;;;14.10;99.90;;;;;;4923977;29;20589;-63
2022/05/26 11:48:00;;;;;;;4.10;3.03;;;14.00;99.90;;;;;;4922463;29;20558;-63
2022/05/26 11:51:00;;;;;;;4.33;2.67;;;14.00;99.90;;;;;;4923128;29;20927;-63
2022/05/26 11:53:43;;;;;;;3.80;3.40;;;13.90;99.90;;;;;;4925276;29;20498;-63
2022/05/26 11:56:49;;;;;;;3.37;2.80;;;13.90;99.90;;;;;;4923987;29;20593;-63
2022/05/26 11:59:46;;;;;;;4.23;2.73;;;13.90;99.90;;;;;;4924611;29;20497;-63
2022/05/26 12:02:32;;;;;;;3.93;3.23;;;13.90;99.90;;;;;;4922697;29;20553;-62
2022/05/26 12:05:46;;;;;;;3.60;3.30;;;13.90;99.90;;;;;;4924609;29;20478;-63
2022/05/26 12:08:39;;;;;;;3.20;2.90;;;13.90;99.90;;;;;;4864502;29;20469;-63
2022/05/26 12:11:12;;;;;;;3.77;3.40;;;13.80;99.90;;;;;;4863007;29;20473;-63
2022/05/26 12:13:43;;;;;;;4.87;3.20;;;13.80;99.90;;;;;;4865549;29;20531;-62
2022/05/26 12:16:29;;;;;;;3.40;3.10;;;13.70;99.90;;;;;;4866066;29;20479;-63
2022/05/26 12:19:04;;;;;;;4.40;3.33;;;13.70;99.90;;;;;;4866547;29;20536;-63
2022/05/26 12:21:50;;;;;;;5.30;3.30;;;13.70;99.90;;;;;;4865093;29;20505;-63
2022/05/26 12:25:07;;;;;;;3.60;3.30;;;13.70;99.90;;;;;;4864834;29;20926;-63
2022/05/26 12:28:08;;;;;;;3.40;3.10;;;13.70;99.90;;;;;;4865656;29;20532;-63
2022/05/26 12:31:11;;;;;;;3.90;3.53;;;13.70;99.90;;;;;;4865219;29;20464;-63
2022/05/26 12:34:21;;;;;;;3.50;3.20;;;13.70;99.90;;;;;;4865171;29;20505;-63
2022/05/26 12:37:06;;;;;;;4.20;3.23;;;13.80;99.90;;;;;;4864155;29;20462;-63
2022/05/26 12:40:09;;;;;;;3.67;3.37;;;13.80;99.90;;;;;;4864618;29;20473;-62
2022/05/26 12:43:19;;;;;;;3.53;3.20;;;13.80;99.90;;;;;;4907971;29;20462;-63
2022/05/26 12:45:54;;;;;;;3.47;3.07;;;13.90;99.90;;;;;;4914854;29;20474;-63
2022/05/26 12:48:54;;;;;;;3.90;3.50;;;13.90;99.90;;;;;;4915049;29;20469;-62
2022/05/26 12:51:27;;;;;;;4.03;3.60;;;14.00;99.90;;;;;;4928084;29;20553;-62
2022/05/26 12:54:02;;;;;;;4.07;3.67;;;13.90;99.90;;;;;;4917913;29;20509;-63
2022/05/26 12:56:47;;;;;;;3.20;2.90;;;14.00;99.90;;;;;;4927542;29;20481;-63
2022/05/26 12:59:24;;;;;;;3.40;3.10;;;14.00;99.90;;;;;;4925708;29;20470;-63
2022/05/26 13:01:55;;;;;;;4.60;3.47;;;14.00;99.90;;;;;;4926385;29;20462;-63
2022/05/26 13:04:34;;;;;;;4.80;3.77;;;14.10;99.90;;;;;;4928135;29;20550;-63
2022/05/26 13:07:09;;;;;;;3.20;2.90;;;14.10;99.90;;;;;;4926858;29;20472;-64
2022/05/26 13:09:50;;;;;;;4.00;3.50;;;14.10;99.90;;;;;;4917698;29;20473;-63
2022/05/26 13:12:24;;;;;;;4.83;4.20;;;14.20;99.90;;;;;;4927943;29;20569;-63
2022/05/26 13:14:58;;;;;;;5.63;4.63;;;14.30;99.90;;;;;;4926923;29;20494;-63
2022/05/26 13:17:33;;;;;;;4.23;3.70;;;14.30;99.90;;;;;;4926945;29;20481;-63
2022/05/26 13:20:06;;;;;;;5.57;4.40;;;14.40;99.90;;;;;;4921500;29;20492;-63
2022/05/26 13:22:40;;;;;;;6.13;4.10;;;14.40;99.90;;;;;;4921899;29;21133;-63
2022/05/26 13:25:13;;;;;;;4.70;4.30;;;14.30;99.90;;;;;;4924646;29;20506;-63
2022/05/26 13:27:48;;;;;;;5.50;4.47;;;14.30;99.90;;;;;;4924163;29;20542;-62
2022/05/26 13:33:18;;;;;;;4.57;4.07;;;14.50;99.90;;;;;;4925631;29;20506;-63
2022/05/26 13:35:54;;;;;;;5.27;4.63;;;14.50;99.90;;;;;;4926985;29;20484;-63
2022/05/26 13:38:32;;;;;;;5.80;5.20;;;14.70;99.90;;;;;;4926551;29;20474;-63
2022/05/26 13:41:05;;;;;;;5.83;5.10;;;14.70;99.90;;;;;;4925826;29;20846;-63
2022/05/26 13:43:38;;;;;;;7.00;5.33;;;14.80;99.90;;;;;;4927218;29;20498;-63
2022/05/26 13:46:10;;;;;;;6.50;5.30;;;14.90;99.90;;;;;;4927550;29;20558;-63
2022/05/26 13:48:43;;;;;;;4.53;4.07;;;14.90;99.90;;;;;;4924894;29;20670;-63
2022/05/26 13:51:20;;;;;;;5.30;4.80;;;15.10;99.90;;;;;;4925785;29;20482;-63
2022/05/26 13:53:56;;;;;;;6.07;5.47;;;15.30;99.90;;;;;;4923662;29;20500;-63
2022/05/26 13:56:32;;;;;;;6.50;5.63;;;15.40;99.90;;;;;;4926765;29;20478;-63
2022/05/26 13:59:14;;;;;;;6.60;5.53;;;15.50;99.90;;;;;;4925945;29;20474;-63
2022/05/26 14:01:52;;;;;;;8.10;5.47;;;15.50;99.90;;;;;;4927722;29;20481;-62
2022/05/26 14:04:30;;;;;;;6.60;6.00;;;15.50;99.90;;;;;;4926677;29;20474;-63
2022/05/26 14:07:01;;;;;;;5.63;5.13;;;15.50;99.90;;;;;;4917750;29;20466;-63
2022/05/26 14:09:36;;;;;;;6.17;5.50;;;15.60;99.90;;;;;;4924931;29;20812;-62
2022/05/26 14:12:09;;;;;;;5.83;5.33;;;15.80;99.90;;;;;;4926694;29;20976;-62
2022/05/26 14:14:45;;;;;;;6.70;5.80;;;16.00;99.90;;;;;;4926511;29;20498;-61
2022/05/26 14:17:27;;;;;;;5.93;4.90;;;16.20;99.90;;;;;;4925320;29;20466;-62
2022/05/26 14:20:00;;;;;;;5.70;5.20;;;16.60;99.90;;;;;;4927508;29;20443;-62
2022/05/26 14:22:36;;;;;;;4.73;4.03;;;16.80;99.90;;;;;;4926100;29;20551;-62